ADDS METAR Data INFO
IDs: Format: Raw Decoded Include TAF

Data at: 0212 UTC 17 Aug 2018

PAFM 170156Z AUTO 04003KT 10SM BKN110 10/08 A2981 RMK AO2 RAE02 SLP110 P0000 T01000078
PAFM 170056Z AUTO 07004KT 10SM -RA BKN070 10/08 A2982 RMK AO2 RAE04B52 SLP112 P0000 T01000078
PAFM 162356Z AUTO 00000KT 10SM -RA BKN060 BKN080 09/08 A2983 RMK AO2 SLP117 P0000 60011 T00940078 10094 20072 58003
PAFM 162256Z AUTO 19005KT 10SM -RA FEW039 OVC050 09/08 A2984 RMK AO2 SLP118 P0002 T00940078
PAFM 162156Z AUTO 20005KT 10SM -RA FEW027 BKN035 OVC060 09/08 A2985 RMK AO2 SLP121 P0001 T00940078
PAFM 161956Z AUTO 21004KT 10SM -RA FEW055 09/07 A2984 RMK AO2 SLP119 P0002 T00890072
PAFM 161856Z AUTO 15003KT 7SM RA BKN037 OVC043 08/07 A2984 RMK AO2 SLP120 P0003 T00830067
PAFM 161756Z AUTO 00000KT 10SM -RA SCT033 OVC046 08/07 A2985 RMK AO2 RAB1657 SLP121 P0001 60001 T00780067 10078 20044 58001
PAFM 161656Z AUTO 00000KT 10SM BKN065 07/06 A2985 RMK AO2 SLP122 T00670061
PAFM 161556Z AUTO 00000KT 10SM SCT075 06/05 A2985 RMK AO2 SLP122 T00560050
PAFM 161456Z AUTO 00000KT 10SM FEW022 SCT090 05/04 A2985 RMK AO2 SLP123 T00500044 58005
PAFM 161423Z AUTO 00000KT 9SM SCT006 SCT022 BKN080 05/05 A2985 RMK AO2
PAFM 161356Z AUTO 00000KT 10SM BKN006 07/06 A2985 RMK AO2 SLP125 T00670056
PAFM 161343Z AUTO 00000KT 10SM SCT006 07/06 A2986 RMK AO2
PAFM 161256Z AUTO 12004KT 10SM FEW120 06/06 A2986 RMK AO2 SLP126 T00610056
PAFM 161156Z AUTO 00000KT 10SM BKN120 06/05 A2986 RMK AO2 SLP128 T00560050 10089 20056 56006
PAFM 161056Z AUTO 00000KT 10SM SCT120 06/05 A2987 RMK AO2 SLP130 T00610050
PAFM 160956Z AUTO 20003KT 10SM CLR 06/06 A2988 RMK AO2 SLP132 T00610056
PAFM 160937Z AUTO 20003KT 10SM SCT027 07/06 A2988 RMK AO2
PAFM 160915Z AUTO 18003KT 10SM BKN027 07/06 A2988 RMK AO2
PAFM 160856Z AUTO 00000KT 10SM SCT023 07/06 A2988 RMK AO2 SLP134 T00670061 55001
PAFM 160847Z AUTO 00000KT 10SM SCT023 07/06 A2988 RMK AO2
PAFM 160756Z AUTO 00000KT 10SM OVC027 08/06 A2988 RMK AO2 SLP133 T00780061 400940006
PAFM 160656Z AUTO 00000KT 10SM OVC023 08/07 A2988 RMK AO2 SLP134 T00830067
PAFM 160556Z AUTO 00000KT 10SM BKN020 OVC026 09/06 A2988 RMK AO2 SLP135 60000 T00890056 10089 20072 56006
PAFM 160456Z AUTO 00000KT 10SM OVC021 08/05 A2989 RMK AO2 SLP137 T00830050
PAFM 160356Z AUTO 00000KT 10SM OVC023 08/05 A2989 RMK AO2 SLP136 T00830050
PAFM 160339Z AUTO 28003KT 10SM BKN023 BKN110 08/05 A2990 RMK AO2
PAFM 160309Z AUTO 25003KT 10SM SCT019 OVC110 08/04 A2990 RMK AO2
PAFM 160256Z AUTO 25003KT 10SM BKN021 OVC100 08/04 A2990 RMK AO2 SLP140 60000 T00830044 56005
PAFM 160238Z AUTO 27003KT 10SM BKN021 08/04 A2990 RMK AO2
PAFM 160212Z AUTO 29005KT 10SM SCT019 08/04 A2991 RMK AO2
PAFM 160156Z AUTO 27005KT 10SM BKN019 BKN038 OVC046 08/04 A2991 RMK AO2 SLP142 T00830044
PAFM 152356Z AUTO 27004KT 10SM -RA SCT036 OVC055 08/03 A2991 RMK AO2 SLP144 P0000 60000 T00780028 10094 20050 58001
PAFM 152256Z AUTO 00000KT 10SM -RA SCT030 BKN034 OVC044 08/03 A2992 RMK AO2 RAB07 SLP147 P0000 T00830028
PAFM 152156Z AUTO 29003KT 10SM BKN090 09/01 A2992 RMK AO2 SLP147 T00890006
PAFM 151956Z AUTO VRB04KT 10SM CLR 09/M01 A2992 RMK AO2 SLP145 T00891006
PAFM 151856Z AUTO VRB05KT 10SM CLR 07/00 A2992 RMK AO2 SLP146 T00670000
PAFM 151756Z AUTO 26006KT 10SM CLR 05/00 A2991 RMK AO2 SLP144 T00500000 10056 20006 51004
PAFM 151656Z AUTO 29003KT 10SM CLR 03/00 A2991 RMK AO2 SLP144 T00280000
PAFM 151556Z AUTO 29004KT 10SM CLR 03/00 A2991 RMK AO2 SLP142 T00330000
PAFM 151456Z AUTO 27006KT 10SM CLR 01/M01 A2990 RMK AO2 SLP141 T00111006 51001 FZRANO